createdAt,value
2024-04-30T05:26:05.803Z,101402.25
2024-04-30T05:26:37.175Z,101398.06
2024-04-30T05:27:08.552Z,101402.88
2024-04-30T05:27:39.912Z,101402.69
2024-04-30T05:28:11.280Z,101394.47
2024-04-30T05:28:42.423Z,101400.56
2024-04-30T05:29:13.759Z,101401.19
2024-04-30T05:29:44.880Z,101394.06
2024-04-30T05:30:16.239Z,101398.25
2024-04-30T05:30:47.612Z,101400.75
2024-04-30T05:31:19.083Z,101406.25
2024-04-30T05:31:50.327Z,101395.97
2024-04-30T05:32:22.456Z,101393.22
2024-04-30T05:32:53.665Z,101404.16
2024-04-30T05:33:27.536Z,101400.38
2024-04-30T05:34:00.894Z,101410.69
2024-04-30T05:34:32.412Z,101405.22
2024-04-30T05:35:05.031Z,101409.84
2024-04-30T05:35:36.157Z,101411.97
2024-04-30T05:36:07.500Z,101405.25
2024-04-30T05:36:38.874Z,101413.84
2024-04-30T05:37:10.271Z,101412.38
2024-04-30T05:37:44.341Z,101409.56
2024-04-30T05:38:15.856Z,101405.19
2024-04-30T05:38:46.984Z,101414.84
2024-04-30T05:39:18.308Z,101369.53
2024-04-30T05:39:49.672Z,101408.56
2024-04-30T05:40:21.090Z,101411.69
2024-04-30T05:40:52.462Z,101410.41
2024-04-30T05:41:23.861Z,101411.88
2024-04-30T05:41:55.247Z,101412.03
2024-04-30T05:42:26.659Z,101415.16
2024-04-30T05:42:58.002Z,101413.50
2024-04-30T05:43:29.481Z,101408.91
2024-04-30T05:44:00.905Z,101406.81
2024-04-30T05:44:32.285Z,101407.47
2024-04-30T05:45:04.003Z,101409.59
2024-04-30T05:45:35.538Z,101415.88
2024-04-30T05:46:06.956Z,101409.19
2024-04-30T05:46:38.470Z,101415.28
2024-04-30T05:47:10.163Z,101411.28
2024-04-30T05:47:42.025Z,101412.97
2024-04-30T05:48:13.137Z,101411.91
2024-04-30T05:48:44.484Z,101423.88
2024-04-30T05:49:16.855Z,101425.56
2024-04-30T05:49:48.265Z,101427.25
2024-04-30T05:50:19.646Z,101422.81
2024-04-30T05:50:50.735Z,101418.00
2024-04-30T05:51:22.222Z,101416.94
2024-04-30T05:51:53.567Z,101425.53
2024-04-30T05:52:24.944Z,101426.38
2024-04-30T05:52:56.361Z,101423.63
2024-04-30T05:53:28.132Z,101428.28
2024-04-30T05:53:59.507Z,101423.22
2024-04-30T05:54:30.956Z,101420.31
2024-04-30T05:55:02.153Z,101417.78
2024-04-30T05:55:33.786Z,101418.19
2024-04-30T05:56:06.248Z,101416.28
2024-04-30T05:56:37.695Z,101416.06
2024-04-30T05:57:08.846Z,101415.03
2024-04-30T05:57:40.213Z,101416.09
2024-04-30T05:58:14.211Z,101421.38
2024-04-30T05:58:45.872Z,101423.69
2024-04-30T05:59:17.282Z,101417.56
2024-04-30T05:59:48.638Z,101419.03
2024-04-30T06:00:20.043Z,101414.81
2024-04-30T06:00:51.420Z,101421.53
2024-04-30T06:01:22.825Z,101416.25
2024-04-30T06:01:54.429Z,101420.88
2024-04-30T06:02:25.913Z,101419.41
2024-04-30T06:02:59.105Z,101422.97
2024-04-30T06:03:33.157Z,101422.13
2024-04-30T06:04:05.092Z,101424.16
2024-04-30T06:04:36.315Z,101425.44
2024-04-30T06:05:07.817Z,101431.53
2024-04-30T06:05:39.284Z,101429.03
2024-04-30T06:06:10.841Z,101427.53
2024-04-30T06:06:42.221Z,101424.75
2024-04-30T06:07:13.634Z,101434.41
2024-04-30T06:07:45.059Z,101426.59
2024-04-30T06:08:16.519Z,101430.59
2024-04-30T06:08:47.909Z,101421.78
2024-04-30T06:09:19.326Z,101425.31
2024-04-30T06:09:50.655Z,101423.63
2024-04-30T06:10:24.135Z,101422.59
2024-04-30T06:10:55.665Z,101421.53
2024-04-30T06:11:27.202Z,101425.50
2024-04-30T06:11:58.567Z,101425.75
2024-04-30T06:12:29.968Z,101425.13
2024-04-30T06:13:01.340Z,101429.38
2024-04-30T06:13:32.935Z,101423.72
2024-04-30T06:14:04.359Z,101423.47
2024-04-30T06:14:35.743Z,101423.28
2024-04-30T06:15:07.229Z,101416.97
2024-04-30T06:15:38.541Z,101425.16
2024-04-30T06:16:09.935Z,101421.41
2024-04-30T06:16:41.357Z,101424.94
2024-04-30T06:17:13.596Z,101422.34
2024-04-30T06:17:45.044Z,101419.84
2024-04-30T06:18:16.522Z,101429.13
2024-04-30T06:18:48.117Z,101428.47
2024-04-30T06:19:19.346Z,101424.28
2024-04-30T06:19:50.805Z,101420.09
2024-04-30T06:20:22.191Z,101424.06
2024-04-30T06:20:53.703Z,101426.53
2024-04-30T06:21:31.540Z,101432.59
2024-04-30T06:22:08.993Z,101429.41
2024-04-30T06:22:40.435Z,101430.06
2024-04-30T06:23:11.857Z,101430.28
2024-04-30T06:23:43.255Z,101439.34
2024-04-30T06:24:14.361Z,101426.09
2024-04-30T06:24:45.733Z,101431.56
2024-04-30T06:25:16.880Z,101421.69
2024-04-30T06:25:48.317Z,101426.09
2024-04-30T06:26:19.711Z,101424.44
2024-04-30T06:26:51.143Z,101427.53
2024-04-30T06:27:22.673Z,101422.91
2024-04-30T06:27:54.062Z,101427.78
2024-04-30T06:28:25.814Z,101430.06
2024-04-30T06:28:57.190Z,101426.50
2024-04-30T06:29:28.622Z,101420.19
2024-04-30T06:29:59.991Z,101419.94
2024-04-30T06:30:32.043Z,101425.00
2024-04-30T06:31:03.558Z,101419.72
2024-04-30T06:31:35.110Z,101420.94
2024-04-30T06:32:06.574Z,101421.13
2024-04-30T06:32:37.968Z,101418.31
2024-04-30T06:33:09.448Z,101416.44
2024-04-30T06:33:40.596Z,101425.69
2024-04-30T06:34:13.352Z,101421.66
2024-04-30T06:34:45.969Z,101420.81
2024-04-30T06:35:17.098Z,101421.19
2024-04-30T06:35:48.421Z,101419.53
2024-04-30T06:36:19.773Z,101418.41
2024-04-30T06:36:51.141Z,101413.69
2024-04-30T06:37:22.545Z,101420.47
2024-04-30T06:37:55.104Z,101415.84
2024-04-30T06:38:28.279Z,101421.72
2024-04-30T06:38:59.652Z,101417.50
2024-04-30T06:39:31.188Z,101419.38
2024-04-30T06:40:02.761Z,101410.31
2024-04-30T06:40:34.460Z,101418.53
2024-04-30T06:41:05.847Z,101425.28
2024-04-30T06:41:37.275Z,101416.88
2024-04-30T06:42:08.884Z,101417.50
2024-04-30T06:42:40.360Z,101416.22
2024-04-30T06:43:11.499Z,101418.50
2024-04-30T06:43:43.040Z,101419.97
2024-04-30T06:44:14.517Z,101422.06
2024-04-30T06:44:46.080Z,101422.47
2024-04-30T06:45:19.334Z,101415.91
2024-04-30T06:45:50.669Z,101419.72
2024-04-30T06:46:22.046Z,101426.06
2024-04-30T06:46:53.464Z,101416.56
2024-04-30T06:47:24.990Z,101417.78
2024-04-30T06:47:57.540Z,101423.41
2024-04-30T06:48:29.078Z,101424.03
2024-04-30T06:49:02.660Z,101415.38
2024-04-30T06:49:34.142Z,101422.69
2024-04-30T06:50:06.082Z,101423.69
2024-04-30T06:50:37.223Z,101423.22
2024-04-30T06:51:09.011Z,101421.72
2024-04-30T06:51:40.532Z,101415.75
2024-04-30T06:52:11.875Z,101422.25
2024-04-30T06:52:43.281Z,101421.34
2024-04-30T06:53:14.663Z,101418.38
2024-04-30T06:53:45.769Z,101416.00
2024-04-30T06:54:16.887Z,101412.44
2024-04-30T06:54:48.224Z,101412.66
2024-04-30T06:55:20.145Z,101419.00
2024-04-30T06:55:53.756Z,101408.63
2024-04-30T06:56:26.669Z,101416.16
2024-04-30T06:56:58.091Z,101416.78
2024-04-30T06:57:29.417Z,101415.56
2024-04-30T06:58:00.842Z,101413.66
2024-04-30T06:58:32.351Z,101410.09
2024-04-30T06:59:03.738Z,101413.88
2024-04-30T06:59:35.108Z,101401.25
2024-04-30T07:00:07.021Z,101405.28
2024-04-30T07:00:39.598Z,101408.63
2024-04-30T07:01:10.970Z,101411.97
2024-04-30T07:01:42.207Z,101407.72
2024-04-30T07:02:13.630Z,101409.75
2024-04-30T07:02:45.015Z,101404.06
2024-04-30T07:03:16.348Z,101407.41
2024-04-30T07:03:47.455Z,101405.72
2024-04-30T07:04:18.871Z,101404.44
2024-04-30T07:04:50.404Z,101402.78
2024-04-30T07:05:21.849Z,101401.94
2024-04-30T07:05:53.729Z,101403.97
2024-04-30T07:06:25.106Z,101396.38
2024-04-30T07:06:56.443Z,101401.41
2024-04-30T07:07:29.033Z,101396.09
2024-04-30T07:08:00.506Z,101390.13
2024-04-30T07:08:31.655Z,101395.56
2024-04-30T07:09:03.200Z,101393.19
2024-04-30T07:09:34.548Z,101392.94
2024-04-30T07:10:06.441Z,101392.13
2024-04-30T07:10:37.653Z,101398.06
2024-04-30T07:11:08.814Z,101393.03
2024-04-30T07:11:40.316Z,101397.31
2024-04-30T07:12:11.919Z,101402.88
2024-04-30T07:12:43.294Z,101397.56
2024-04-30T07:13:14.934Z,101403.06
2024-04-30T07:13:46.340Z,101397.41
2024-04-30T07:14:17.756Z,101361.75
2024-04-30T07:14:49.212Z,101399.09
2024-04-30T07:15:20.653Z,101398.66
2024-04-30T07:15:52.043Z,101395.84
2024-04-30T07:16:23.484Z,101389.69
2024-04-30T07:17:02.534Z,101398.91
2024-04-30T07:17:40.161Z,101393.06
2024-04-30T07:18:11.665Z,101397.88
2024-04-30T07:18:43.204Z,101390.72
2024-04-30T07:19:14.572Z,101392.38
2024-04-30T07:19:47.092Z,101395.13
2024-04-30T07:20:19.589Z,101392.63
2024-04-30T07:20:50.941Z,101390.88
2024-04-30T07:21:22.318Z,101387.44
2024-04-30T07:21:53.467Z,101396.88
2024-04-30T07:22:24.866Z,101393.88
2024-04-30T07:22:56.466Z,101399.50
2024-04-30T07:23:27.661Z,101400.81
2024-04-30T07:23:58.785Z,101394.03
2024-04-30T07:24:30.159Z,101389.50
2024-04-30T07:25:01.523Z,101390.13
2024-04-30T07:25:32.955Z,101392.41
2024-04-30T07:26:04.751Z,101398.00
2024-04-30T07:26:36.144Z,101394.94
2024-04-30T07:27:07.480Z,101391.47
2024-04-30T07:27:38.863Z,101395.03
2024-04-30T07:28:10.271Z,101399.22
2024-04-30T07:28:41.735Z,101390.50
2024-04-30T07:29:13.119Z,101387.28
2024-04-30T07:29:44.442Z,101389.34
2024-04-30T07:30:15.762Z,101391.63
2024-04-30T07:30:47.128Z,101393.53
2024-04-30T07:31:18.567Z,101396.03
2024-04-30T07:31:51.091Z,101389.47
2024-04-30T07:32:22.546Z,101387.56
2024-04-30T07:32:54.257Z,101393.91
2024-04-30T07:33:25.814Z,101390.31
2024-04-30T07:33:57.255Z,101394.25
2024-04-30T07:34:28.784Z,101389.94
2024-04-30T07:35:00.254Z,101386.19
2024-04-30T07:35:31.354Z,101382.13
2024-04-30T07:36:02.950Z,101392.16
2024-04-30T07:36:34.330Z,101387.84
2024-04-30T07:37:05.441Z,101393.47
2024-04-30T07:37:36.909Z,101385.38
2024-04-30T07:38:08.316Z,101391.00
2024-04-30T07:38:39.814Z,101386.09
2024-04-30T07:39:11.204Z,101383.34
2024-04-30T07:39:42.593Z,101390.53
2024-04-30T07:40:14.491Z,101386.47
2024-04-30T07:40:45.673Z,101384.06
2024-04-30T07:41:17.057Z,101392.44
2024-04-30T07:41:48.431Z,101384.31
2024-04-30T07:42:19.796Z,101382.75
2024-04-30T07:42:51.225Z,101374.88
2024-04-30T07:43:22.674Z,101389.19
2024-04-30T07:43:54.934Z,101386.19
2024-04-30T07:44:26.308Z,101385.47
2024-04-30T07:44:57.666Z,101386.19
2024-04-30T07:45:29.041Z,101379.97
2024-04-30T07:46:00.441Z,101373.75
2024-04-30T07:46:31.888Z,101376.34
2024-04-30T07:47:03.554Z,101369.81
2024-04-30T07:47:35.024Z,101378.91
2024-04-30T07:48:06.669Z,101372.78
2024-04-30T07:48:39.443Z,101376.59
2024-04-30T07:49:10.848Z,101378.06
2024-04-30T07:49:42.234Z,101377.34
2024-04-30T07:50:13.719Z,101366.78
2024-04-30T07:50:45.090Z,101370.97
2024-04-30T07:51:17.046Z,101369.31
2024-04-30T07:51:48.464Z,101364.28
2024-04-30T07:52:19.896Z,101370.63
2024-04-30T07:52:51.252Z,101374.47
2024-04-30T07:53:22.627Z,101360.81
2024-04-30T07:53:54.033Z,101371.94
2024-04-30T07:54:25.411Z,101357.69
2024-04-30T07:54:59.668Z,101367.84
2024-04-30T07:55:32.129Z,101373.94
2024-04-30T07:56:03.783Z,101362.09
2024-04-30T07:56:35.193Z,101367.59
2024-04-30T07:57:06.535Z,101368.44
2024-04-30T07:57:37.921Z,101369.50
2024-04-30T07:58:09.292Z,101373.56
2024-04-30T07:58:40.526Z,101377.03
2024-04-30T07:59:11.980Z,101367.44
2024-04-30T07:59:43.364Z,101364.22
2024-04-30T08:00:14.767Z,101369.72
2024-04-30T08:00:46.329Z,101367.22
2024-04-30T08:01:17.978Z,101367.34
2024-04-30T08:01:49.498Z,101368.50
2024-04-30T08:02:20.966Z,101367.91
2024-04-30T08:02:52.603Z,101368.75
2024-04-30T08:03:24.066Z,101371.25
2024-04-30T08:03:55.536Z,101370.53
2024-04-30T08:04:26.896Z,101371.38
2024-04-30T08:04:58.260Z,101370.38
2024-04-30T08:05:31.225Z,101376.13
2024-04-30T08:06:10.879Z,101374.53
2024-04-30T08:06:51.106Z,101372.97
2024-04-30T08:07:22.479Z,101372.16
2024-04-30T08:07:53.821Z,101370.00
2024-04-30T08:08:25.168Z,101371.06
2024-04-30T08:08:56.540Z,101367.72
2024-04-30T08:09:27.852Z,101367.13
2024-04-30T08:09:59.228Z,101365.22
2024-04-30T08:10:30.605Z,101374.38
2024-04-30T08:11:01.938Z,101364.97
2024-04-30T08:11:33.825Z,101359.19
2024-04-30T08:12:05.329Z,101370.31
2024-04-30T08:12:36.731Z,101367.41
2024-04-30T08:13:08.108Z,101364.16
2024-04-30T08:13:41.699Z,101361.41
2024-04-30T08:14:13.146Z,101366.66
2024-04-30T08:14:50.295Z,101367.41
2024-04-30T08:15:27.579Z,101365.31
2024-04-30T08:16:04.694Z,101361.25
2024-04-30T08:16:36.315Z,101362.34
2024-04-30T08:17:07.761Z,101363.06
2024-04-30T08:17:39.378Z,101365.06
2024-04-30T08:18:11.326Z,101366.03
2024-04-30T08:18:42.756Z,101358.38
2024-04-30T08:19:14.095Z,101356.22
2024-04-30T08:19:45.644Z,101356.28
2024-04-30T08:20:17.062Z,101358.81
2024-04-30T08:20:48.404Z,101358.06
2024-04-30T08:21:19.673Z,101357.31
2024-04-30T08:21:50.981Z,101350.69
2024-04-30T08:22:23.167Z,101358.16
2024-04-30T08:22:55.149Z,101357.31
2024-04-30T08:23:26.529Z,101355.13
2024-04-30T08:23:57.635Z,101355.97
2024-04-30T08:24:29.018Z,101352.47
2024-04-30T08:25:00.398Z,101354.97
2024-04-30T08:25:31.597Z,101353.81
2024-04-30T08:26:03.056Z,101351.31
2024-04-30T08:26:37.865Z,101360.16
2024-04-30T08:27:09.014Z,101351.13
2024-04-30T08:27:40.399Z,101355.06
2024-04-30T08:28:11.775Z,101352.13
2024-04-30T08:28:43.852Z,101349.38
2024-04-30T08:29:16.043Z,101352.13
2024-04-30T08:29:47.889Z,101354.03
2024-04-30T08:30:19.751Z,101357.97
2024-04-30T08:30:51.666Z,101359.47
2024-04-30T08:31:23.574Z,101360.06
2024-04-30T08:31:55.008Z,101360.28
2024-04-30T08:32:26.477Z,101359.47
2024-04-30T08:32:59.295Z,101357.22
2024-04-30T08:33:30.847Z,101356.66
2024-04-30T08:34:02.260Z,101359.31
2024-04-30T08:34:33.427Z,101352.38
2024-04-30T08:35:05.030Z,101358.13
2024-04-30T08:35:36.715Z,101352.78
2024-04-30T08:36:08.181Z,101351.94
2024-04-30T08:36:39.573Z,101351.94
2024-04-30T08:37:10.745Z,101352.22
2024-04-30T08:37:51.321Z,101358.31
2024-04-30T08:38:26.338Z,101353.63
2024-04-30T08:38:57.507Z,101358.66
2024-04-30T08:39:29.071Z,101347.63
2024-04-30T08:40:00.575Z,101353.44
2024-04-30T08:40:31.785Z,101351.53
2024-04-30T08:41:06.691Z,101352.38
2024-04-30T08:41:38.602Z,101347.38
2024-04-30T08:42:10.872Z,101351.28
2024-04-30T08:42:48.565Z,101354.88
2024-04-30T08:43:21.593Z,101349.19
2024-04-30T08:43:54.566Z,101360.28
2024-04-30T08:44:27.424Z,101340.16
2024-04-30T08:45:01.725Z,101347.06
2024-04-30T08:45:33.657Z,101352.94
2024-04-30T08:46:08.194Z,101343.94
2024-04-30T08:46:42.846Z,101348.34
2024-04-30T08:47:14.589Z,101347.00
2024-04-30T08:47:49.256Z,101347.91
2024-04-30T08:48:23.662Z,101342.72
2024-04-30T08:48:56.728Z,101343.56
2024-04-30T08:49:38.392Z,101338.88
2024-04-30T08:50:21.733Z,101340.78
2024-04-30T08:50:53.688Z,101340.03
2024-04-30T08:51:24.906Z,101342.78
2024-04-30T08:52:00.333Z,101341.22
2024-04-30T08:52:33.647Z,101338.19
2024-04-30T08:53:07.867Z,101343.19
2024-04-30T08:53:39.372Z,101340.19
2024-04-30T08:54:11.118Z,101338.50
2024-04-30T08:54:42.915Z,101334.16
2024-04-30T08:55:16.656Z,101344.66
2024-04-30T08:55:48.288Z,101348.03
2024-04-30T08:56:19.875Z,101341.47
2024-04-30T08:56:51.321Z,101339.28
2024-04-30T08:57:22.757Z,101345.69
2024-04-30T08:57:54.234Z,101344.34
2024-04-30T08:58:25.658Z,101337.16
2024-04-30T08:58:57.151Z,101341.59
2024-04-30T08:59:28.491Z,101339.66
2024-04-30T09:00:00.381Z,101337.22
2024-04-30T09:00:31.907Z,101342.16
2024-04-30T09:01:04.447Z,101346.22
2024-04-30T09:01:37.596Z,101346.84
2024-04-30T09:02:09.196Z,101342.16
2024-04-30T09:02:40.992Z,101335.53
2024-04-30T09:03:13.077Z,101339.72
2024-04-30T09:03:44.892Z,101332.28
2024-04-30T09:04:17.226Z,101335.03
2024-04-30T09:04:49.685Z,101341.41
2024-04-30T09:05:21.917Z,101332.84
2024-04-30T09:05:54.395Z,101338.13
2024-04-30T09:06:25.932Z,101334.59
2024-04-30T09:06:57.368Z,101338.16
2024-04-30T09:07:29.047Z,101338.50
2024-04-30T09:08:01.382Z,101340.50
2024-04-30T09:08:32.878Z,101337.47
2024-04-30T09:09:04.484Z,101338.03
2024-04-30T09:09:35.880Z,101336.63
2024-04-30T09:10:07.392Z,101338.78
2024-04-30T09:10:40.643Z,101335.81
2024-04-30T09:11:11.961Z,101331.63
2024-04-30T09:11:43.285Z,101328.88
2024-04-30T09:12:14.803Z,101333.63
2024-04-30T09:12:46.198Z,101339.72
2024-04-30T09:13:18.772Z,101328.34
2024-04-30T09:13:51.450Z,101342.41
2024-04-30T09:14:22.851Z,101328.97
2024-04-30T09:14:55.851Z,101330.59
2024-04-30T09:15:27.348Z,101329.78
2024-04-30T09:16:00.210Z,101324.25
2024-04-30T09:16:31.691Z,101332.53
2024-04-30T09:17:03.363Z,101324.06
2024-04-30T09:17:34.891Z,101331.22
2024-04-30T09:18:09.109Z,101324.88
2024-04-30T09:18:50.211Z,101330.66
2024-04-30T09:19:29.060Z,101332.38
2024-04-30T09:20:03.233Z,101326.66
2024-04-30T09:20:44.743Z,101320.03
2024-04-30T09:21:45.718Z,101329.44
2024-04-30T09:22:18.734Z,101325.94
2024-04-30T09:22:50.914Z,101327.38
2024-04-30T09:23:26.563Z,101322.47
2024-04-30T09:24:08.045Z,101323.00
2024-04-30T09:24:46.450Z,101325.50
2024-04-30T09:25:19.099Z,101324.97
2024-04-30T09:25:50.494Z,101331.59
2024-04-30T09:26:21.884Z,101333.28
2024-04-30T09:26:53.267Z,101328.22
2024-04-30T09:27:32.172Z,101324.56
2024-04-30T09:28:15.976Z,101320.16
2024-04-30T09:28:53.887Z,101319.31
2024-04-30T09:29:35.767Z,101315.19
2024-04-30T09:30:18.413Z,101319.34
2024-04-30T09:30:56.871Z,101319.41
2024-04-30T09:31:38.377Z,101320.25
2024-04-30T09:32:14.337Z,101313.31
2024-04-30T09:32:45.802Z,101316.88
2024-04-30T09:33:17.252Z,101315.47
2024-04-30T09:33:54.826Z,101317.94
2024-04-30T09:34:26.232Z,101307.47
2024-04-30T09:34:57.552Z,101310.81
2024-04-30T09:35:29.811Z,101316.09
2024-04-30T09:36:07.256Z,101310.44
2024-04-30T09:36:40.490Z,101308.16
2024-04-30T09:37:22.531Z,101303.00
2024-04-30T09:38:00.360Z,101299.97
2024-04-30T09:38:33.528Z,101303.34
2024-04-30T09:39:09.570Z,101307.81
2024-04-30T09:39:43.121Z,101309.03
2024-04-30T09:40:14.661Z,101306.03
2024-04-30T09:40:46.140Z,101308.56
2024-04-30T09:41:18.994Z,101306.69
2024-04-30T09:41:50.658Z,101312.25
2024-04-30T09:42:25.646Z,101300.97
2024-04-30T09:42:56.984Z,101300.69
2024-04-30T09:43:31.265Z,101300.44
2024-04-30T09:44:02.822Z,101307.94
2024-04-30T09:44:35.056Z,101303.25
2024-04-30T09:45:07.134Z,101310.69
2024-04-30T09:45:38.550Z,101306.53
2024-04-30T09:46:10.895Z,101303.22
2024-04-30T09:46:43.121Z,101300.72
2024-04-30T09:47:14.725Z,101279.84
2024-04-30T09:47:46.298Z,101298.53
2024-04-30T09:48:18.320Z,101298.56
2024-04-30T09:48:51.035Z,101299.16
2024-04-30T09:49:23.916Z,101296.34
2024-04-30T09:49:55.484Z,101301.81
2024-04-30T09:50:29.255Z,101300.72
2024-04-30T09:51:04.579Z,101296.31
2024-04-30T09:51:39.218Z,101295.47
2024-04-30T09:52:12.239Z,101290.56
2024-04-30T09:52:45.118Z,101289.72
2024-04-30T09:53:18.142Z,101286.09
2024-04-30T09:53:49.841Z,101298.31
2024-04-30T09:54:24.707Z,101290.91
2024-04-30T09:55:00.707Z,101282.09
2024-04-30T09:55:35.996Z,101284.03
2024-04-30T09:56:10.757Z,101287.13
2024-04-30T09:56:45.305Z,101287.94
2024-04-30T09:57:17.318Z,101280.47
2024-04-30T09:57:48.887Z,101284.63
2024-04-30T09:58:20.242Z,101287.69
2024-04-30T09:58:51.778Z,101279.41
2024-04-30T09:59:23.131Z,101282.19
2024-04-30T09:59:54.549Z,101283.59
2024-04-30T10:00:28.794Z,101277.75
2024-04-30T10:01:03.953Z,101274.34
2024-04-30T10:01:36.221Z,101277.09
2024-04-30T10:02:11.290Z,101280.09
2024-04-30T10:02:54.393Z,101277.13
2024-04-30T10:03:27.982Z,101272.72
2024-04-30T10:04:01.497Z,101278.78
2024-04-30T10:04:34.724Z,101276.91
2024-04-30T10:05:07.733Z,101283.28
2024-04-30T10:05:50.942Z,101274.44
2024-04-30T10:06:22.875Z,101277.19
2024-04-30T10:06:56.738Z,101279.94
2024-04-30T10:07:29.441Z,101288.25
2024-04-30T10:08:01.621Z,101278.84
2024-04-30T10:08:34.120Z,101274.38
2024-04-30T10:09:06.016Z,101274.38
2024-04-30T10:09:37.375Z,101273.84
2024-04-30T10:10:08.825Z,101270.81
2024-04-30T10:10:40.276Z,101273.56
2024-04-30T10:11:11.963Z,101272.25
2024-04-30T10:11:46.876Z,101273.59
2024-04-30T10:12:27.109Z,101269.78
2024-04-30T10:13:08.111Z,101266.44
2024-04-30T10:13:53.132Z,101268.94
2024-04-30T10:14:28.691Z,101267.25
2024-04-30T10:15:13.732Z,101268.13
2024-04-30T10:15:45.057Z,101265.16
2024-04-30T10:16:17.226Z,101262.97
2024-04-30T10:16:58.760Z,101261.63
2024-04-30T10:17:41.987Z,101209.75
2024-04-30T10:18:23.390Z,101260.56
2024-04-30T10:19:02.026Z,101267.50
2024-04-30T10:19:43.501Z,101266.94
2024-04-30T10:20:33.958Z,101273.28
2024-04-30T10:21:11.586Z,101272.75
2024-04-30T10:21:42.969Z,101269.13
2024-04-30T10:22:18.131Z,101266.91
2024-04-30T10:22:49.819Z,101261.09
2024-04-30T10:23:27.814Z,101262.50
2024-04-30T10:23:59.284Z,101258.38
2024-04-30T10:24:38.737Z,101258.06
2024-04-30T10:25:23.155Z,101261.38
2024-04-30T10:26:04.689Z,101257.75
2024-04-30T10:26:44.655Z,101251.59
2024-04-30T10:27:19.356Z,101249.66
2024-04-30T10:27:51.434Z,101247.47
2024-04-30T10:28:23.763Z,101250.78
2024-04-30T10:29:04.430Z,101251.13
2024-04-30T10:29:39.199Z,101254.75
2024-04-30T10:30:10.612Z,101258.34
2024-04-30T10:30:42.086Z,101253.91
2024-04-30T10:31:19.626Z,101257.81
2024-04-30T10:31:51.055Z,101262.22
2024-04-30T10:32:22.453Z,101254.75
2024-04-30T10:32:55.249Z,101261.69
2024-04-30T10:33:26.555Z,101259.53
2024-04-30T10:34:09.802Z,101252.56
2024-04-30T10:34:42.327Z,101253.09
2024-04-30T10:35:13.474Z,101255.03
2024-04-30T10:35:44.557Z,101256.41
2024-04-30T10:36:16.990Z,101248.63
2024-04-30T10:36:48.431Z,101247.22
2024-04-30T10:37:29.953Z,101253.03
2024-04-30T10:38:04.336Z,101248.88
2024-04-30T10:38:38.253Z,101245.28
2024-04-30T10:39:09.435Z,101257.78
2024-04-30T10:39:41.098Z,101255.59
2024-04-30T10:40:15.199Z,101250.91
2024-04-30T10:40:46.636Z,101244.03
2024-04-30T10:41:18.091Z,101249.84
2024-04-30T10:41:49.517Z,101242.63
2024-04-30T10:42:20.681Z,101213.25
2024-04-30T10:42:51.763Z,101248.72
2024-04-30T10:43:23.307Z,101253.44
2024-04-30T10:44:02.312Z,101243.47
2024-04-30T10:44:43.644Z,101247.91
2024-04-30T10:45:22.599Z,101250.94
2024-04-30T10:45:54.009Z,101255.66
2024-04-30T10:46:26.007Z,101246.50
2024-04-30T10:46:57.602Z,101246.81
2024-04-30T10:47:35.290Z,101241.53
2024-04-30T10:48:10.337Z,101242.06
2024-04-30T10:48:52.212Z,101247.63
2024-04-30T10:49:23.665Z,101245.69
2024-04-30T10:50:16.446Z,101240.69
2024-04-30T10:50:59.225Z,101236.81
2024-04-30T10:51:35.623Z,101236.81
2024-04-30T10:52:07.042Z,101234.88
2024-04-30T10:52:38.512Z,101235.13
2024-04-30T10:53:09.989Z,101239.03
2024-04-30T10:53:42.018Z,101234.88
2024-04-30T10:54:14.142Z,101235.44
2024-04-30T10:54:45.568Z,101230.44
2024-04-30T10:55:19.875Z,101237.31
2024-04-30T10:55:51.476Z,101234.84
2024-04-30T10:56:23.218Z,101236.53
2024-04-30T10:56:54.660Z,101238.16
2024-04-30T10:57:30.581Z,101228.78
2024-04-30T10:58:13.841Z,101230.97
2024-04-30T10:58:55.834Z,101232.34
2024-04-30T10:59:27.873Z,101235.41
2024-04-30T11:00:06.710Z,101233.75
2024-04-30T11:00:44.438Z,101240.63
2024-04-30T11:01:23.582Z,101250.91
2024-04-30T11:02:01.063Z,101242.88
2024-04-30T11:02:32.468Z,101234.25
2024-04-30T11:03:08.338Z,101245.03
2024-04-30T11:03:39.740Z,101239.19
2024-04-30T11:04:12.194Z,101239.78
2024-04-30T11:04:43.812Z,101250.88
2024-04-30T11:05:16.992Z,101242.50
2024-04-30T11:05:58.921Z,101240.03
2024-04-30T11:06:42.922Z,101235.13
2024-04-30T11:07:18.050Z,101237.59
2024-04-30T11:07:58.982Z,101236.50
2024-04-30T11:08:31.530Z,101238.97
2024-04-30T11:09:05.431Z,101233.66
2024-04-30T11:09:39.608Z,101233.38
2024-04-30T11:10:11.048Z,101233.94
2024-04-30T11:10:45.614Z,101234.75
2024-04-30T11:11:39.732Z,101227.53
2024-04-30T11:12:10.892Z,101230.84
2024-04-30T11:12:42.638Z,101226.72
2024-04-30T11:13:22.545Z,101224.78
2024-04-30T11:14:00.717Z,101227.22
2024-04-30T11:14:44.568Z,101219.19
2024-04-30T11:15:16.082Z,101222.81
2024-04-30T11:15:51.336Z,101221.41
2024-04-30T11:16:27.755Z,101218.59
2024-04-30T11:16:59.227Z,101225.25
2024-04-30T11:17:30.673Z,101224.72
2024-04-30T11:18:02.234Z,101217.78
2024-04-30T11:18:36.095Z,101218.13
2024-04-30T11:19:08.821Z,101209.50
2024-04-30T11:19:41.618Z,101217.47
2024-04-30T11:20:12.775Z,101222.50
2024-04-30T11:20:44.121Z,101221.69
2024-04-30T11:21:21.000Z,101216.44
2024-04-30T11:21:52.932Z,101220.84
2024-04-30T11:22:24.316Z,101223.56
2024-04-30T11:22:55.728Z,101217.72
2024-04-30T11:23:27.083Z,101224.00
2024-04-30T11:23:58.438Z,101220.63
2024-04-30T11:24:29.803Z,101217.28
2024-04-30T11:25:01.183Z,101220.44
2024-04-30T11:25:32.394Z,101220.25
2024-04-30T11:26:03.719Z,101215.78
2024-04-30T11:26:35.320Z,101219.06
2024-04-30T11:27:06.712Z,101215.63
2024-04-30T11:27:38.102Z,101216.63
2024-04-30T11:28:09.218Z,101221.88
2024-04-30T11:28:40.684Z,101217.84
2024-04-30T11:29:23.903Z,101211.47
2024-04-30T11:30:04.195Z,101216.22
2024-04-30T11:30:35.587Z,101207.59
2024-04-30T11:31:07.033Z,101218.00
2024-04-30T11:31:38.498Z,101210.25
2024-04-30T11:32:10.168Z,101207.38
2024-04-30T11:32:41.745Z,101169.97
2024-04-30T11:33:13.348Z,101210.59
2024-04-30T11:33:44.725Z,101206.63
2024-04-30T11:34:16.229Z,101206.84
2024-04-30T11:34:51.220Z,101201.50
2024-04-30T11:35:23.409Z,101204.91
2024-04-30T11:35:54.760Z,101197.75
2024-04-30T11:36:25.886Z,101203.69
2024-04-30T11:36:57.230Z,101204.88
2024-04-30T11:37:28.457Z,101201.13
2024-04-30T11:38:00.047Z,101200.34
2024-04-30T11:38:31.620Z,101197.69
2024-04-30T11:39:03.350Z,101202.13
2024-04-30T11:39:34.791Z,101199.06
2024-04-30T11:40:06.940Z,101199.00
2024-04-30T11:40:38.679Z,101202.28
2024-04-30T11:41:10.053Z,101200.00
2024-04-30T11:41:48.493Z,101198.94